sensor_id;sensor_type;location;lat;lon;timestamp;temperature;humidity
782;DHT22;374;52.568;13.402;2022-08-01T00:00:05;24.30;64.50
782;DHT22;374;52.568;13.402;2022-08-01T00:02:31;24.30;64.10
782;DHT22;374;52.568;13.402;2022-08-01T00:04:57;24.20;64.10
782;DHT22;374;52.568;13.402;2022-08-01T00:07:22;24.20;64.20
782;DHT22;374;52.568;13.402;2022-08-01T00:09:48;24.20;64.40
782;DHT22;374;52.568;13.402;2022-08-01T00:12:14;24.20;64.70
782;DHT22;374;52.568;13.402;2022-08-01T00:14:39;24.10;64.80
782;DHT22;374;52.568;13.402;2022-08-01T00:17:05;24.30;65.20
782;DHT22;374;52.568;13.402;2022-08-01T00:19:31;23.90;65.10
782;DHT22;374;52.568;13.402;2022-08-01T00:21:57;24.20;65.70
782;DHT22;374;52.568;13.402;2022-08-01T00:24:22;24.00;65.90
782;DHT22;374;52.568;13.402;2022-08-01T00:26:48;24.00;66.60
782;DHT22;374;52.568;13.402;2022-08-01T00:29:13;24.10;67.50
782;DHT22;374;52.568;13.402;2022-08-01T00:31:39;24.00;68.40
782;DHT22;374;52.568;13.402;2022-08-01T00:34:04;23.90;68.80
782;DHT22;374;52.568;13.402;2022-08-01T00:36:30;23.90;69.70
782;DHT22;374;52.568;13.402;2022-08-01T00:38:56;23.90;71.60
782;DHT22;374;52.568;13.402;2022-08-01T00:41:21;24.10;74.20
782;DHT22;374;52.568;13.402;2022-08-01T00:43:47;23.80;74.20
782;DHT22;374;52.568;13.402;2022-08-01T00:46:12;23.80;75.20
782;DHT22;374;52.568;13.402;2022-08-01T00:48:38;23.80;76.20
782;DHT22;374;52.568;13.402;2022-08-01T00:51:05;23.70;76.70
782;DHT22;374;52.568;13.402;2022-08-01T00:53:30;23.50;76.70
782;DHT22;374;52.568;13.402;2022-08-01T00:55:56;23.60;77.40
782;DHT22;374;52.568;13.402;2022-08-01T00:58:22;23.50;78.90
782;DHT22;374;52.568;13.402;2022-08-01T01:00:48;23.50;78.80
782;DHT22;374;52.568;13.402;2022-08-01T01:03:14;23.50;79.60
782;DHT22;374;52.568;13.402;2022-08-01T01:05:51;23.70;80.00
782;DHT22;374;52.568;13.402;2022-08-01T01:08:27;23.40;80.00
782;DHT22;374;52.568;13.402;2022-08-01T01:10:58;23.50;80.70
782;DHT22;374;52.568;13.402;2022-08-01T01:13:39;23.40;80.90
782;DHT22;374;52.568;13.402;2022-08-01T01:16:12;23.30;80.80
782;DHT22;374;52.568;13.402;2022-08-01T01:18:46;23.10;81.00
782;DHT22;374;52.568;13.402;2022-08-01T01:29:48;23.20;81.60
782;DHT22;374;52.568;13.402;2022-08-01T01:32:22;23.20;81.60
782;DHT22;374;52.568;13.402;2022-08-01T01:34:49;23.20;81.90
782;DHT22;374;52.568;13.402;2022-08-01T01:37:18;23.10;82.10
782;DHT22;374;52.568;13.402;2022-08-01T01:39:49;23.10;82.20
782;DHT22;374;52.568;13.402;2022-08-01T01:42:16;23.10;82.70
782;DHT22;374;52.568;13.402;2022-08-01T01:44:43;23.10;82.90
782;DHT22;374;52.568;13.402;2022-08-01T01:47:12;23.10;83.30
782;DHT22;374;52.568;13.402;2022-08-01T01:49:40;23.10;83.70
782;DHT22;374;52.568;13.402;2022-08-01T01:52:06;23.10;84.00
782;DHT22;374;52.568;13.402;2022-08-01T01:54:36;23.10;83.60
782;DHT22;374;52.568;13.402;2022-08-01T01:57:03;23.10;84.20
782;DHT22;374;52.568;13.402;2022-08-01T01:59:31;23.00;84.40
782;DHT22;374;52.568;13.402;2022-08-01T02:02:01;23.00;84.20
782;DHT22;374;52.568;13.402;2022-08-01T02:04:28;23.00;84.50
782;DHT22;374;52.568;13.402;2022-08-01T02:06:54;23.00;84.30
782;DHT22;374;52.568;13.402;2022-08-01T02:09:21;23.00;84.50
782;DHT22;374;52.568;13.402;2022-08-01T02:11:49;22.90;84.10
782;DHT22;374;52.568;13.402;2022-08-01T02:14:16;22.90;84.00
782;DHT22;374;52.568;13.402;2022-08-01T02:16:45;22.90;83.90
782;DHT22;374;52.568;13.402;2022-08-01T02:19:13;22.90;84.10
782;DHT22;374;52.568;13.402;2022-08-01T02:21:46;22.90;84.40
782;DHT22;374;52.568;13.402;2022-08-01T02:24:17;22.90;84.00
782;DHT22;374;52.568;13.402;2022-08-01T02:26:47;22.80;83.80
782;DHT22;374;52.568;13.402;2022-08-01T02:29:19;22.80;83.90
782;DHT22;374;52.568;13.402;2022-08-01T02:31:47;22.80;84.10
782;DHT22;374;52.568;13.402;2022-08-01T02:34:17;22.80;84.30
782;DHT22;374;52.568;13.402;2022-08-01T02:36:44;22.80;84.60
782;DHT22;374;52.568;13.402;2022-08-01T02:39:14;22.70;84.60
782;DHT22;374;52.568;13.402;2022-08-01T02:41:43;22.70;84.80
782;DHT22;374;52.568;13.402;2022-08-01T02:44:13;22.70;84.90
782;DHT22;374;52.568;13.402;2022-08-01T02:46:49;22.70;84.60
782;DHT22;374;52.568;13.402;2022-08-01T02:49:16;22.70;84.80
782;DHT22;374;52.568;13.402;2022-08-01T02:51:46;22.70;85.30
782;DHT22;374;52.568;13.402;2022-08-01T02:54:13;22.70;85.30
782;DHT22;374;52.568;13.402;2022-08-01T02:56:40;22.60;85.50
782;DHT22;374;52.568;13.402;2022-08-01T02:59:09;22.70;85.50
782;DHT22;374;52.568;13.402;2022-08-01T03:01:37;22.60;85.80
782;DHT22;374;52.568;13.402;2022-08-01T03:04:05;22.60;86.20
782;DHT22;374;52.568;13.402;2022-08-01T03:06:32;22.60;86.30
782;DHT22;374;52.568;13.402;2022-08-01T03:09:00;22.60;86.30
782;DHT22;374;52.568;13.402;2022-08-01T03:11:28;22.50;86.60
782;DHT22;374;52.568;13.402;2022-08-01T03:13:56;22.60;86.70
782;DHT22;374;52.568;13.402;2022-08-01T03:16:23;22.60;86.90
782;DHT22;374;52.568;13.402;2022-08-01T03:18:51;22.50;87.10
782;DHT22;374;52.568;13.402;2022-08-01T03:21:19;22.50;87.60
782;DHT22;374;52.568;13.402;2022-08-01T03:23:48;22.50;87.50
782;DHT22;374;52.568;13.402;2022-08-01T03:26:17;22.50;88.00
782;DHT22;374;52.568;13.402;2022-08-01T03:28:44;22.50;88.10
782;DHT22;374;52.568;13.402;2022-08-01T03:31:12;22.50;88.20
782;DHT22;374;52.568;13.402;2022-08-01T03:33:39;22.50;88.10
782;DHT22;374;52.568;13.402;2022-08-01T03:36:05;22.40;88.40
782;DHT22;374;52.568;13.402;2022-08-01T03:38:37;22.40;88.30
782;DHT22;374;52.568;13.402;2022-08-01T03:41:09;22.50;88.60
782;DHT22;374;52.568;13.402;2022-08-01T03:43:50;22.70;88.90
782;DHT22;374;52.568;13.402;2022-08-01T03:46:20;22.40;88.90
782;DHT22;374;52.568;13.402;2022-08-01T03:48:50;22.40;88.60
782;DHT22;374;52.568;13.402;2022-08-01T03:51:19;22.50;89.10
782;DHT22;374;52.568;13.402;2022-08-01T03:53:47;22.50;89.20
782;DHT22;374;52.568;13.402;2022-08-01T03:56:18;22.50;88.50
782;DHT22;374;52.568;13.402;2022-08-01T03:58:45;22.50;88.80
782;DHT22;374;52.568;13.402;2022-08-01T04:01:11;22.50;88.90
782;DHT22;374;52.568;13.402;2022-08-01T04:03:38;22.80;89.10
782;DHT22;374;52.568;13.402;2022-08-01T04:06:05;22.50;88.90
782;DHT22;374;52.568;13.402;2022-08-01T04:08:38;22.50;88.90
782;DHT22;374;52.568;13.402;2022-08-01T04:11:03;22.50;89.20
782;DHT22;374;52.568;13.402;2022-08-01T04:13:30;22.50;89.60
782;DHT22;374;52.568;13.402;2022-08-01T04:15:56;22.50;89.90
782;DHT22;374;52.568;13.402;2022-08-01T04:18:21;22.50;90.10
782;DHT22;374;52.568;13.402;2022-08-01T04:20:47;22.50;90.10
782;DHT22;374;52.568;13.402;2022-08-01T04:23:15;22.50;90.10
782;DHT22;374;52.568;13.402;2022-08-01T04:25:42;22.50;90.30
782;DHT22;374;52.568;13.402;2022-08-01T04:28:10;22.50;90.20
782;DHT22;374;52.568;13.402;2022-08-01T04:30:42;22.50;90.30
782;DHT22;374;52.568;13.402;2022-08-01T04:33:10;22.50;90.20
782;DHT22;374;52.568;13.402;2022-08-01T04:35:38;22.50;90.40
782;DHT22;374;52.568;13.402;2022-08-01T04:38:07;22.50;90.50
782;DHT22;374;52.568;13.402;2022-08-01T04:40:35;22.50;90.80
782;DHT22;374;52.568;13.402;2022-08-01T04:43:01;22.50;90.60
782;DHT22;374;52.568;13.402;2022-08-01T04:45:27;22.50;90.90
782;DHT22;374;52.568;13.402;2022-08-01T04:47:54;22.50;91.00
782;DHT22;374;52.568;13.402;2022-08-01T04:50:20;22.50;91.10
782;DHT22;374;52.568;13.402;2022-08-01T04:52:47;22.50;91.10
782;DHT22;374;52.568;13.402;2022-08-01T04:55:13;22.50;91.20
782;DHT22;374;52.568;13.402;2022-08-01T04:57:41;22.50;91.50
782;DHT22;374;52.568;13.402;2022-08-01T05:00:10;22.50;91.50
782;DHT22;374;52.568;13.402;2022-08-01T05:02:36;22.50;91.60
782;DHT22;374;52.568;13.402;2022-08-01T05:05:02;22.50;91.70
782;DHT22;374;52.568;13.402;2022-08-01T05:07:28;22.50;91.50
782;DHT22;374;52.568;13.402;2022-08-01T05:09:53;22.50;92.00
782;DHT22;374;52.568;13.402;2022-08-01T05:12:19;22.50;91.90
782;DHT22;374;52.568;13.402;2022-08-01T05:14:44;22.50;92.10
782;DHT22;374;52.568;13.402;2022-08-01T05:17:11;22.50;92.40
782;DHT22;374;52.568;13.402;2022-08-01T05:19:38;22.50;93.20
782;DHT22;374;52.568;13.402;2022-08-01T05:22:07;22.50;94.10
782;DHT22;374;52.568;13.402;2022-08-01T05:24:35;22.50;95.60
782;DHT22;374;52.568;13.402;2022-08-01T05:27:01;22.40;96.00
782;DHT22;374;52.568;13.402;2022-08-01T05:29:27;22.40;95.70
782;DHT22;374;52.568;13.402;2022-08-01T05:31:53;22.30;95.50
782;DHT22;374;52.568;13.402;2022-08-01T05:34:19;22.30;95.80
782;DHT22;374;52.568;13.402;2022-08-01T05:36:45;22.30;95.60
782;DHT22;374;52.568;13.402;2022-08-01T05:39:11;22.40;95.70
782;DHT22;374;52.568;13.402;2022-08-01T05:41:37;22.40;95.50
782;DHT22;374;52.568;13.402;2022-08-01T05:44:04;22.40;95.50
782;DHT22;374;52.568;13.402;2022-08-01T05:46:29;22.40;95.50
782;DHT22;374;52.568;13.402;2022-08-01T05:48:56;22.40;95.50
782;DHT22;374;52.568;13.402;2022-08-01T05:51:22;22.40;95.50
782;DHT22;374;52.568;13.402;2022-08-01T05:53:48;22.40;95.50
782;DHT22;374;52.568;13.402;2022-08-01T05:56:13;22.40;95.60
782;DHT22;374;52.568;13.402;2022-08-01T05:58:39;22.40;95.50
782;DHT22;374;52.568;13.402;2022-08-01T06:01:04;22.40;95.70
782;DHT22;374;52.568;13.402;2022-08-01T06:03:30;22.40;95.60
782;DHT22;374;52.568;13.402;2022-08-01T06:05:57;22.50;95.50
782;DHT22;374;52.568;13.402;2022-08-01T06:08:23;22.50;95.60
782;DHT22;374;52.568;13.402;2022-08-01T06:10:48;22.50;95.40
782;DHT22;374;52.568;13.402;2022-08-01T06:13:14;22.50;95.20
782;DHT22;374;52.568;13.402;2022-08-01T06:15:40;22.50;95.20
782;DHT22;374;52.568;13.402;2022-08-01T06:18:05;22.50;95.10
782;DHT22;374;52.568;13.402;2022-08-01T06:20:32;22.50;95.70
782;DHT22;374;52.568;13.402;2022-08-01T06:22:58;22.50;95.20
782;DHT22;374;52.568;13.402;2022-08-01T06:25:23;22.50;95.30
782;DHT22;374;52.568;13.402;2022-08-01T06:27:49;22.50;95.40
782;DHT22;374;52.568;13.402;2022-08-01T06:30:15;22.50;95.40
782;DHT22;374;52.568;13.402;2022-08-01T06:32:41;22.50;95.50
782;DHT22;374;52.568;13.402;2022-08-01T06:35:07;22.50;95.50
782;DHT22;374;52.568;13.402;2022-08-01T06:37:33;22.50;95.50
782;DHT22;374;52.568;13.402;2022-08-01T06:40:04;22.60;95.70
782;DHT22;374;52.568;13.402;2022-08-01T06:42:30;22.60;95.70
782;DHT22;374;52.568;13.402;2022-08-01T06:45:07;22.60;95.60
782;DHT22;374;52.568;13.402;2022-08-01T06:47:33;22.70;95.60
782;DHT22;374;52.568;13.402;2022-08-01T06:49:59;22.70;95.60
782;DHT22;374;52.568;13.402;2022-08-01T06:52:24;22.70;95.70
782;DHT22;374;52.568;13.402;2022-08-01T06:54:50;22.70;95.40
782;DHT22;374;52.568;13.402;2022-08-01T06:57:16;22.80;95.60
782;DHT22;374;52.568;13.402;2022-08-01T06:59:42;22.80;95.50
782;DHT22;374;52.568;13.402;2022-08-01T07:02:07;23.00;95.30
782;DHT22;374;52.568;13.402;2022-08-01T07:04:34;22.80;95.10
782;DHT22;374;52.568;13.402;2022-08-01T07:07:00;22.90;95.10
782;DHT22;374;52.568;13.402;2022-08-01T07:09:26;22.80;95.10
782;DHT22;374;52.568;13.402;2022-08-01T07:11:52;22.80;95.00
782;DHT22;374;52.568;13.402;2022-08-01T07:14:18;22.80;95.10
782;DHT22;374;52.568;13.402;2022-08-01T07:16:44;23.00;95.10
782;DHT22;374;52.568;13.402;2022-08-01T07:19:10;22.80;94.80
782;DHT22;374;52.568;13.402;2022-08-01T07:21:36;22.70;94.80
782;DHT22;374;52.568;13.402;2022-08-01T07:24:02;22.80;94.90
782;DHT22;374;52.568;13.402;2022-08-01T07:26:27;22.80;94.90
782;DHT22;374;52.568;13.402;2022-08-01T07:28:53;22.70;94.90
782;DHT22;374;52.568;13.402;2022-08-01T07:31:19;22.70;95.10
782;DHT22;374;52.568;13.402;2022-08-01T07:33:45;22.70;95.40
782;DHT22;374;52.568;13.402;2022-08-01T07:36:11;22.70;95.40
782;DHT22;374;52.568;13.402;2022-08-01T07:38:37;22.70;95.20
782;DHT22;374;52.568;13.402;2022-08-01T07:41:02;22.70;95.10
782;DHT22;374;52.568;13.402;2022-08-01T07:43:28;22.60;95.00
782;DHT22;374;52.568;13.402;2022-08-01T07:45:54;22.70;95.10
782;DHT22;374;52.568;13.402;2022-08-01T07:48:20;22.70;95.10
782;DHT22;374;52.568;13.402;2022-08-01T07:50:49;22.90;95.20
782;DHT22;374;52.568;13.402;2022-08-01T07:53:16;23.10;95.10
782;DHT22;374;52.568;13.402;2022-08-01T07:55:41;22.90;94.80
782;DHT22;374;52.568;13.402;2022-08-01T07:58:07;22.90;94.60
782;DHT22;374;52.568;13.402;2022-08-01T08:00:33;22.80;94.80
782;DHT22;374;52.568;13.402;2022-08-01T08:02:59;22.90;94.40
782;DHT22;374;52.568;13.402;2022-08-01T08:05:25;22.90;94.50
782;DHT22;374;52.568;13.402;2022-08-01T08:07:51;23.00;94.40
782;DHT22;374;52.568;13.402;2022-08-01T08:10:16;22.90;94.20
782;DHT22;374;52.568;13.402;2022-08-01T08:12:42;22.90;94.20
782;DHT22;374;52.568;13.402;2022-08-01T08:15:08;23.10;94.10
782;DHT22;374;52.568;13.402;2022-08-01T08:17:34;22.80;93.80
782;DHT22;374;52.568;13.402;2022-08-01T08:20:01;22.80;93.80
782;DHT22;374;52.568;13.402;2022-08-01T08:22:27;22.80;93.90
782;DHT22;374;52.568;13.402;2022-08-01T08:24:53;22.80;94.20
782;DHT22;374;52.568;13.402;2022-08-01T08:27:18;22.70;94.20
782;DHT22;374;52.568;13.402;2022-08-01T08:29:44;22.80;94.20
782;DHT22;374;52.568;13.402;2022-08-01T08:32:09;22.80;93.90
782;DHT22;374;52.568;13.402;2022-08-01T08:34:35;22.90;93.80
782;DHT22;374;52.568;13.402;2022-08-01T08:37:01;23.30;93.90
782;DHT22;374;52.568;13.402;2022-08-01T08:39:26;23.20;93.70
782;DHT22;374;52.568;13.402;2022-08-01T08:41:56;23.10;93.30
782;DHT22;374;52.568;13.402;2022-08-01T08:44:23;23.40;93.40
782;DHT22;374;52.568;13.402;2022-08-01T08:46:50;23.20;93.10
782;DHT22;374;52.568;13.402;2022-08-01T08:49:22;23.20;92.80
782;DHT22;374;52.568;13.402;2022-08-01T08:51:50;23.20;92.70
782;DHT22;374;52.568;13.402;2022-08-01T08:54:21;23.50;92.00
782;DHT22;374;52.568;13.402;2022-08-01T08:56:47;23.30;91.90
782;DHT22;374;52.568;13.402;2022-08-01T08:59:13;23.50;92.00
782;DHT22;374;52.568;13.402;2022-08-01T09:01:39;23.30;91.90
782;DHT22;374;52.568;13.402;2022-08-01T09:04:05;23.40;92.00
782;DHT22;374;52.568;13.402;2022-08-01T09:06:32;23.40;91.90
782;DHT22;374;52.568;13.402;2022-08-01T09:09:01;23.50;91.70
782;DHT22;374;52.568;13.402;2022-08-01T09:11:39;23.70;91.80
782;DHT22;374;52.568;13.402;2022-08-01T09:14:17;23.90;91.40
782;DHT22;374;52.568;13.402;2022-08-01T09:17:00;23.90;90.90
782;DHT22;374;52.568;13.402;2022-08-01T09:19:35;24.00;90.80
782;DHT22;374;52.568;13.402;2022-08-01T09:22:03;24.00;90.60
782;DHT22;374;52.568;13.402;2022-08-01T09:24:30;24.00;90.50
782;DHT22;374;52.568;13.402;2022-08-01T09:26:57;24.10;90.50
782;DHT22;374;52.568;13.402;2022-08-01T09:29:27;24.00;89.80
782;DHT22;374;52.568;13.402;2022-08-01T09:31:54;24.10;89.90
782;DHT22;374;52.568;13.402;2022-08-01T09:34:30;24.10;89.80
782;DHT22;374;52.568;13.402;2022-08-01T09:36:59;24.10;89.30
782;DHT22;374;52.568;13.402;2022-08-01T09:39:38;24.00;89.30
782;DHT22;374;52.568;13.402;2022-08-01T09:44:47;24.00;90.10
782;DHT22;374;52.568;13.402;2022-08-01T09:47:16;23.90;90.10
782;DHT22;374;52.568;13.402;2022-08-01T09:52:36;23.80;90.40
782;DHT22;374;52.568;13.402;2022-08-01T09:55:05;23.70;90.30
782;DHT22;374;52.568;13.402;2022-08-01T09:57:31;23.80;90.50
782;DHT22;374;52.568;13.402;2022-08-01T10:00:16;23.70;90.50
782;DHT22;374;52.568;13.402;2022-08-01T10:02:41;23.70;90.40
782;DHT22;374;52.568;13.402;2022-08-01T10:05:10;23.70;90.40
782;DHT22;374;52.568;13.402;2022-08-01T10:07:55;23.70;90.60
782;DHT22;374;52.568;13.402;2022-08-01T10:10:21;23.90;90.70
782;DHT22;374;52.568;13.402;2022-08-01T10:12:47;24.00;90.80
782;DHT22;374;52.568;13.402;2022-08-01T10:15:15;23.70;90.50
782;DHT22;374;52.568;13.402;2022-08-01T10:17:46;23.70;90.50
782;DHT22;374;52.568;13.402;2022-08-01T10:20:13;23.60;90.40
782;DHT22;374;52.568;13.402;2022-08-01T10:22:39;23.60;90.70
782;DHT22;374;52.568;13.402;2022-08-01T10:25:05;23.60;90.90
782;DHT22;374;52.568;13.402;2022-08-01T10:27:32;23.60;91.10
782;DHT22;374;52.568;13.402;2022-08-01T10:30:01;23.50;91.20
782;DHT22;374;52.568;13.402;2022-08-01T10:32:31;23.50;91.30
782;DHT22;374;52.568;13.402;2022-08-01T10:34:58;23.50;91.30
782;DHT22;374;52.568;13.402;2022-08-01T10:37:24;23.50;91.20
782;DHT22;374;52.568;13.402;2022-08-01T10:39:51;23.60;91.40
782;DHT22;374;52.568;13.402;2022-08-01T10:42:18;23.60;91.40
782;DHT22;374;52.568;13.402;2022-08-01T10:44:44;23.70;91.40
782;DHT22;374;52.568;13.402;2022-08-01T10:47:15;23.70;91.50
782;DHT22;374;52.568;13.402;2022-08-01T10:49:50;23.70;91.20
782;DHT22;374;52.568;13.402;2022-08-01T10:52:17;23.70;91.00
782;DHT22;374;52.568;13.402;2022-08-01T10:54:44;24.00;91.00
782;DHT22;374;52.568;13.402;2022-08-01T10:57:21;23.80;90.70
782;DHT22;374;52.568;13.402;2022-08-01T10:59:50;23.80;90.70
782;DHT22;374;52.568;13.402;2022-08-01T11:05:02;23.80;90.60
782;DHT22;374;52.568;13.402;2022-08-01T11:07:51;23.80;90.60
782;DHT22;374;52.568;13.402;2022-08-01T11:10:37;23.70;90.40
782;DHT22;374;52.568;13.402;2022-08-01T11:13:03;23.80;90.10
782;DHT22;374;52.568;13.402;2022-08-01T11:15:33;24.10;90.30
782;DHT22;374;52.568;13.402;2022-08-01T11:18:28;23.80;90.20
782;DHT22;374;52.568;13.402;2022-08-01T11:20:59;23.80;90.20
782;DHT22;374;52.568;13.402;2022-08-01T11:23:27;23.80;90.80
782;DHT22;374;52.568;13.402;2022-08-01T11:28:21;23.70;94.60
782;DHT22;374;52.568;13.402;2022-08-01T11:31:24;23.50;95.20
782;DHT22;374;52.568;13.402;2022-08-01T11:38:37;23.20;96.00
782;DHT22;374;52.568;13.402;2022-08-01T11:41:32;23.20;96.40
782;DHT22;374;52.568;13.402;2022-08-01T11:44:01;23.20;96.20
782;DHT22;374;52.568;13.402;2022-08-01T11:49:30;23.30;95.80
782;DHT22;374;52.568;13.402;2022-08-01T11:52:08;23.40;95.20
782;DHT22;374;52.568;13.402;2022-08-01T11:57:10;23.50;94.30
782;DHT22;374;52.568;13.402;2022-08-01T11:59:57;23.70;94.00
782;DHT22;374;52.568;13.402;2022-08-01T12:02:30;23.70;93.80
782;DHT22;374;52.568;13.402;2022-08-01T12:05:08;23.80;93.20
782;DHT22;374;52.568;13.402;2022-08-01T12:07:35;23.90;92.90
782;DHT22;374;52.568;13.402;2022-08-01T12:10:10;24.00;92.90
782;DHT22;374;52.568;13.402;2022-08-01T12:12:42;24.00;92.50
782;DHT22;374;52.568;13.402;2022-08-01T12:15:09;24.10;92.40
782;DHT22;374;52.568;13.402;2022-08-01T12:17:40;24.00;92.20
782;DHT22;374;52.568;13.402;2022-08-01T12:20:12;24.00;92.70
782;DHT22;374;52.568;13.402;2022-08-01T12:22:38;24.00;94.80
782;DHT22;374;52.568;13.402;2022-08-01T12:27:35;23.80;96.50
782;DHT22;374;52.568;13.402;2022-08-01T12:30:01;23.70;97.10
782;DHT22;374;52.568;13.402;2022-08-01T12:32:30;23.70;97.70
782;DHT22;374;52.568;13.402;2022-08-01T12:35:01;23.70;97.60
782;DHT22;374;52.568;13.402;2022-08-01T12:37:26;23.70;97.30
782;DHT22;374;52.568;13.402;2022-08-01T12:39:52;23.80;96.90
782;DHT22;374;52.568;13.402;2022-08-01T12:42:18;23.80;96.20
782;DHT22;374;52.568;13.402;2022-08-01T12:44:45;23.90;96.40
782;DHT22;374;52.568;13.402;2022-08-01T12:47:13;24.00;96.00
782;DHT22;374;52.568;13.402;2022-08-01T12:49:41;24.00;95.90
782;DHT22;374;52.568;13.402;2022-08-01T12:52:08;24.10;95.90
782;DHT22;374;52.568;13.402;2022-08-01T12:57:42;24.20;95.00
782;DHT22;374;52.568;13.402;2022-08-01T13:00:36;24.30;94.70
782;DHT22;374;52.568;13.402;2022-08-01T13:03:18;24.30;93.70
782;DHT22;374;52.568;13.402;2022-08-01T13:05:55;24.30;93.40
782;DHT22;374;52.568;13.402;2022-08-01T13:08:29;24.30;93.00
782;DHT22;374;52.568;13.402;2022-08-01T13:11:07;24.20;92.90
782;DHT22;374;52.568;13.402;2022-08-01T13:13:44;24.20;93.00
782;DHT22;374;52.568;13.402;2022-08-01T13:16:12;24.10;93.20
782;DHT22;374;52.568;13.402;2022-08-01T13:18:38;24.10;93.20
782;DHT22;374;52.568;13.402;2022-08-01T13:21:25;24.10;93.00
782;DHT22;374;52.568;13.402;2022-08-01T13:24:09;24.10;92.80
782;DHT22;374;52.568;13.402;2022-08-01T13:26:44;24.10;92.80
782;DHT22;374;52.568;13.402;2022-08-01T13:29:11;24.10;92.70
782;DHT22;374;52.568;13.402;2022-08-01T13:31:38;24.10;92.60
782;DHT22;374;52.568;13.402;2022-08-01T13:34:05;24.10;92.40
782;DHT22;374;52.568;13.402;2022-08-01T13:36:30;24.10;92.40
782;DHT22;374;52.568;13.402;2022-08-01T13:38:57;24.10;92.60
782;DHT22;374;52.568;13.402;2022-08-01T13:41:42;24.10;93.20
782;DHT22;374;52.568;13.402;2022-08-01T13:44:07;24.10;94.40
782;DHT22;374;52.568;13.402;2022-08-01T13:46:34;24.00;95.50
782;DHT22;374;52.568;13.402;2022-08-01T13:49:01;24.00;98.10
782;DHT22;374;52.568;13.402;2022-08-01T13:51:27;23.80;98.80
782;DHT22;374;52.568;13.402;2022-08-01T13:53:52;23.70;99.10
782;DHT22;374;52.568;13.402;2022-08-01T13:56:18;23.60;99.40
782;DHT22;374;52.568;13.402;2022-08-01T13:58:45;23.50;99.40
782;DHT22;374;52.568;13.402;2022-08-01T14:01:11;23.50;99.90
782;DHT22;374;52.568;13.402;2022-08-01T14:03:37;23.40;99.70
782;DHT22;374;52.568;13.402;2022-08-01T14:06:03;23.40;99.90
782;DHT22;374;52.568;13.402;2022-08-01T14:08:30;23.40;99.90
782;DHT22;374;52.568;13.402;2022-08-01T14:10:56;23.40;99.90
782;DHT22;374;52.568;13.402;2022-08-01T14:13:27;23.60;99.90
782;DHT22;374;52.568;13.402;2022-08-01T14:16:00;23.50;99.90
782;DHT22;374;52.568;13.402;2022-08-01T14:18:52;23.50;99.90
782;DHT22;374;52.568;13.402;2022-08-01T14:21:30;23.50;99.80
782;DHT22;374;52.568;13.402;2022-08-01T14:24:02;23.60;99.30
782;DHT22;374;52.568;13.402;2022-08-01T14:26:57;23.70;99.30
782;DHT22;374;52.568;13.402;2022-08-01T14:29:56;23.70;98.60
782;DHT22;374;52.568;13.402;2022-08-01T14:32:43;23.80;98.70
782;DHT22;374;52.568;13.402;2022-08-01T14:35:46;23.80;98.00
782;DHT22;374;52.568;13.402;2022-08-01T14:38:21;23.90;97.90
782;DHT22;374;52.568;13.402;2022-08-01T14:40:57;23.80;97.40
782;DHT22;374;52.568;13.402;2022-08-01T14:43:43;23.90;97.10
782;DHT22;374;52.568;13.402;2022-08-01T14:46:16;24.00;96.80
782;DHT22;374;52.568;13.402;2022-08-01T14:48:47;23.90;96.50
782;DHT22;374;52.568;13.402;2022-08-01T14:51:18;23.90;96.20
782;DHT22;374;52.568;13.402;2022-08-01T14:53:44;23.90;96.00
782;DHT22;374;52.568;13.402;2022-08-01T14:56:13;24.00;95.80
782;DHT22;374;52.568;13.402;2022-08-01T14:58:38;24.00;95.80
782;DHT22;374;52.568;13.402;2022-08-01T15:01:06;24.00;95.80
782;DHT22;374;52.568;13.402;2022-08-01T15:03:34;23.90;95.40
782;DHT22;374;52.568;13.402;2022-08-01T15:06:00;23.90;95.30
782;DHT22;374;52.568;13.402;2022-08-01T15:08:28;23.90;94.60
782;DHT22;374;52.568;13.402;2022-08-01T15:10:57;23.90;94.80
782;DHT22;374;52.568;13.402;2022-08-01T15:13:28;23.90;94.30
782;DHT22;374;52.568;13.402;2022-08-01T15:15:57;23.80;94.10
782;DHT22;374;52.568;13.402;2022-08-01T15:18:23;23.90;94.20
782;DHT22;374;52.568;13.402;2022-08-01T15:20:49;23.90;93.90
782;DHT22;374;52.568;13.402;2022-08-01T15:23:14;24.10;94.20
782;DHT22;374;52.568;13.402;2022-08-01T15:25:40;23.90;93.50
782;DHT22;374;52.568;13.402;2022-08-01T15:28:05;23.90;93.20
782;DHT22;374;52.568;13.402;2022-08-01T15:30:31;23.90;93.10
782;DHT22;374;52.568;13.402;2022-08-01T15:33:00;23.90;93.20
782;DHT22;374;52.568;13.402;2022-08-01T15:35:25;23.80;92.60
782;DHT22;374;52.568;13.402;2022-08-01T15:37:51;23.80;92.90
782;DHT22;374;52.568;13.402;2022-08-01T15:40:20;23.80;92.20
782;DHT22;374;52.568;13.402;2022-08-01T15:42:46;23.80;92.70
782;DHT22;374;52.568;13.402;2022-08-01T15:45:13;23.80;92.30
782;DHT22;374;52.568;13.402;2022-08-01T15:47:52;23.80;92.40
782;DHT22;374;52.568;13.402;2022-08-01T15:50:18;23.80;92.60
782;DHT22;374;52.568;13.402;2022-08-01T15:52:43;23.80;92.50
782;DHT22;374;52.568;13.402;2022-08-01T15:55:09;23.80;92.40
782;DHT22;374;52.568;13.402;2022-08-01T15:57:45;23.80;92.30
782;DHT22;374;52.568;13.402;2022-08-01T16:00:11;23.80;92.40
782;DHT22;374;52.568;13.402;2022-08-01T16:02:39;23.80;92.10
782;DHT22;374;52.568;13.402;2022-08-01T16:05:09;23.80;91.80
782;DHT22;374;52.568;13.402;2022-08-01T16:07:35;23.80;92.00
782;DHT22;374;52.568;13.402;2022-08-01T16:10:02;24.00;92.00
782;DHT22;374;52.568;13.402;2022-08-01T16:12:38;23.80;91.50
782;DHT22;374;52.568;13.402;2022-08-01T16:15:12;23.80;91.10
782;DHT22;374;52.568;13.402;2022-08-01T16:17:43;23.80;91.00
782;DHT22;374;52.568;13.402;2022-08-01T16:20:13;24.10;90.60
782;DHT22;374;52.568;13.402;2022-08-01T16:22:43;23.80;90.80
782;DHT22;374;52.568;13.402;2022-08-01T16:25:11;24.00;90.40
782;DHT22;374;52.568;13.402;2022-08-01T16:27:42;23.80;90.30
782;DHT22;374;52.568;13.402;2022-08-01T16:30:10;23.80;90.10
782;DHT22;374;52.568;13.402;2022-08-01T16:32:38;23.80;90.00
782;DHT22;374;52.568;13.402;2022-08-01T16:35:04;23.90;90.00
782;DHT22;374;52.568;13.402;2022-08-01T16:37:30;23.80;89.30
782;DHT22;374;52.568;13.402;2022-08-01T16:39:57;23.80;89.70
782;DHT22;374;52.568;13.402;2022-08-01T16:42:27;23.80;89.30
782;DHT22;374;52.568;13.402;2022-08-01T16:44:53;23.90;89.30
782;DHT22;374;52.568;13.402;2022-08-01T16:47:22;23.90;89.10
782;DHT22;374;52.568;13.402;2022-08-01T16:49:51;23.80;88.90
782;DHT22;374;52.568;13.402;2022-08-01T16:52:17;23.80;89.40
782;DHT22;374;52.568;13.402;2022-08-01T16:54:43;23.90;89.30
782;DHT22;374;52.568;13.402;2022-08-01T17:02:43;24.10;89.30
782;DHT22;374;52.568;13.402;2022-08-01T17:05:10;23.80;88.80
782;DHT22;374;52.568;13.402;2022-08-01T17:07:36;23.80;87.60